createdAt,value
2023-12-24T14:49:07.479Z,86.69
2023-12-24T14:59:07.653Z,86.90
2023-12-24T15:09:07.880Z,86.18
2023-12-24T15:19:08.199Z,85.32
2023-12-24T15:29:08.152Z,84.71
2023-12-24T15:39:08.373Z,85.22
2023-12-24T15:49:08.458Z,85.32
2023-12-24T15:59:08.737Z,85.94
2023-12-24T16:09:09.552Z,85.28
2023-12-24T16:19:09.003Z,85.08
2023-12-24T16:29:08.908Z,84.67
2023-12-24T16:39:09.131Z,85.08
2023-12-24T16:49:09.511Z,85.08
2023-12-24T16:59:09.763Z,85.38
2023-12-24T17:09:09.668Z,85.49
2023-12-24T17:19:09.987Z,85.55
2023-12-24T17:29:09.884Z,86.36
2023-12-24T17:39:10.170Z,86.57
2023-12-24T17:49:10.694Z,86.88
2023-12-24T17:59:10.502Z,86.83
2023-12-24T18:09:10.525Z,87.38
2023-12-24T18:19:11.047Z,87.14
2023-12-24T18:29:10.991Z,86.94
2023-12-24T18:39:11.329Z,86.94
2023-12-24T18:49:11.372Z,87.04
2023-12-24T18:59:12.131Z,86.83
2023-12-24T19:09:11.778Z,86.02
2023-12-24T19:19:11.910Z,85.41
2023-12-24T19:29:13.311Z,86.26
2023-12-24T19:39:13.200Z,85.96
2023-12-24T19:49:12.711Z,85.89
2023-12-24T19:59:12.537Z,85.14
2023-12-24T20:09:12.517Z,82.96
2023-12-24T20:19:12.916Z,82.55
2023-12-24T20:29:13.124Z,82.45
2023-12-24T20:39:13.037Z,81.73
2023-12-24T20:49:13.321Z,81.94
2023-12-24T20:59:13.638Z,80.51
2023-12-24T21:09:16.535Z,78.94
2023-12-24T21:19:13.907Z,79.83
2023-12-24T21:29:13.887Z,78.16
2023-12-24T21:39:14.083Z,79.02
2023-12-24T21:49:14.475Z,78.20
2023-12-24T21:59:14.375Z,79.05
2023-12-24T22:09:14.636Z,80.76
2023-12-24T22:19:15.038Z,80.97
2023-12-24T22:29:14.923Z,81.01
2023-12-24T22:39:15.132Z,80.60
2023-12-24T22:49:15.601Z,79.57
2023-12-24T22:59:15.469Z,78.34
2023-12-24T23:09:15.551Z,76.78
2023-12-24T23:19:15.851Z,76.40
2023-12-24T23:29:16.290Z,75.14
2023-12-24T23:39:16.188Z,75.07
2023-12-24T23:49:16.619Z,73.85
2023-12-24T23:59:16.410Z,73.44
